sensor_id;sensor_type;location;lat;lon;timestamp;P1;durP1;ratioP1;P2;durP2;ratioP2
19179;SDS011;9722;48.754;8.868;2022-10-16T00:01:56;1.53;;;0.80;;
19179;SDS011;9722;48.754;8.868;2022-10-16T00:05:16;1.23;;;0.80;;
19179;SDS011;9722;48.754;8.868;2022-10-16T00:08:37;0.67;;;0.60;;
19179;SDS011;9722;48.754;8.868;2022-10-16T00:11:58;1.17;;;0.83;;
19179;SDS011;9722;48.754;8.868;2022-10-16T00:15:19;1.80;;;1.00;;
19179;SDS011;9722;48.754;8.868;2022-10-16T00:18:39;0.90;;;0.70;;
19179;SDS011;9722;48.754;8.868;2022-10-16T00:22:00;1.53;;;0.80;;
19179;SDS011;9722;48.754;8.868;2022-10-16T00:25:21;1.93;;;0.90;;
19179;SDS011;9722;48.754;8.868;2022-10-16T00:28:41;1.47;;;1.30;;
19179;SDS011;9722;48.754;8.868;2022-10-16T00:32:02;1.17;;;0.73;;
19179;SDS011;9722;48.754;8.868;2022-10-16T00:35:23;1.37;;;0.73;;
19179;SDS011;9722;48.754;8.868;2022-10-16T00:38:43;1.03;;;0.93;;
19179;SDS011;9722;48.754;8.868;2022-10-16T00:42:05;1.60;;;0.57;;
19179;SDS011;9722;48.754;8.868;2022-10-16T00:45:25;1.63;;;0.80;;
19179;SDS011;9722;48.754;8.868;2022-10-16T00:52:24;0.87;;;0.70;;
19179;SDS011;9722;48.754;8.868;2022-10-16T00:55:45;1.20;;;0.70;;
19179;SDS011;9722;48.754;8.868;2022-10-16T00:59:07;0.60;;;0.60;;
19179;SDS011;9722;48.754;8.868;2022-10-16T01:02:34;0.60;;;0.60;;
19179;SDS011;9722;48.754;8.868;2022-10-16T01:06:41;1.00;;;0.63;;
19179;SDS011;9722;48.754;8.868;2022-10-16T01:10:10;1.40;;;0.80;;
19179;SDS011;9722;48.754;8.868;2022-10-16T01:13:55;2.70;;;0.80;;
19179;SDS011;9722;48.754;8.868;2022-10-16T01:17:26;0.90;;;0.80;;
19179;SDS011;9722;48.754;8.868;2022-10-16T01:27:54;4.90;;;0.77;;
19179;SDS011;9722;48.754;8.868;2022-10-16T01:31:18;1.00;;;0.77;;
19179;SDS011;9722;48.754;8.868;2022-10-16T01:34:50;2.20;;;0.90;;
19179;SDS011;9722;48.754;8.868;2022-10-16T01:41:58;5.30;;;0.90;;
19179;SDS011;9722;48.754;8.868;2022-10-16T01:45:26;1.10;;;0.63;;
19179;SDS011;9722;48.754;8.868;2022-10-16T01:48:49;1.23;;;0.93;;
19179;SDS011;9722;48.754;8.868;2022-10-16T01:52:16;1.30;;;0.80;;
19179;SDS011;9722;48.754;8.868;2022-10-16T01:55:41;1.70;;;1.23;;
19179;SDS011;9722;48.754;8.868;2022-10-16T01:59:12;3.07;;;1.00;;
19179;SDS011;9722;48.754;8.868;2022-10-16T02:02:36;1.40;;;1.10;;
19179;SDS011;9722;48.754;8.868;2022-10-16T02:06:01;1.30;;;0.90;;
19179;SDS011;9722;48.754;8.868;2022-10-16T02:09:22;1.33;;;0.83;;
19179;SDS011;9722;48.754;8.868;2022-10-16T02:12:45;1.10;;;1.10;;
19179;SDS011;9722;48.754;8.868;2022-10-16T02:16:16;3.33;;;1.30;;
19179;SDS011;9722;48.754;8.868;2022-10-16T02:19:37;5.80;;;1.10;;
19179;SDS011;9722;48.754;8.868;2022-10-16T02:22:57;2.43;;;1.00;;
19179;SDS011;9722;48.754;8.868;2022-10-16T02:26:22;2.73;;;1.10;;
19179;SDS011;9722;48.754;8.868;2022-10-16T02:29:59;1.27;;;1.17;;
19179;SDS011;9722;48.754;8.868;2022-10-16T02:33:41;2.80;;;0.83;;
19179;SDS011;9722;48.754;8.868;2022-10-16T02:37:04;1.20;;;1.10;;
19179;SDS011;9722;48.754;8.868;2022-10-16T02:40:25;1.03;;;1.03;;
19179;SDS011;9722;48.754;8.868;2022-10-16T02:43:46;1.20;;;1.10;;
19179;SDS011;9722;48.754;8.868;2022-10-16T02:47:07;2.47;;;1.10;;
19179;SDS011;9722;48.754;8.868;2022-10-16T02:50:27;0.83;;;0.80;;
19179;SDS011;9722;48.754;8.868;2022-10-16T02:53:48;1.50;;;1.00;;
19179;SDS011;9722;48.754;8.868;2022-10-16T02:57:08;1.07;;;0.80;;
19179;SDS011;9722;48.754;8.868;2022-10-16T03:00:29;1.00;;;1.00;;
19179;SDS011;9722;48.754;8.868;2022-10-16T03:03:49;1.63;;;0.97;;
19179;SDS011;9722;48.754;8.868;2022-10-16T03:07:10;2.63;;;1.00;;
19179;SDS011;9722;48.754;8.868;2022-10-16T03:10:30;1.80;;;1.10;;
19179;SDS011;9722;48.754;8.868;2022-10-16T03:13:51;2.80;;;1.50;;
19179;SDS011;9722;48.754;8.868;2022-10-16T03:17:12;1.53;;;0.63;;
19179;SDS011;9722;48.754;8.868;2022-10-16T03:20:33;0.93;;;0.93;;
19179;SDS011;9722;48.754;8.868;2022-10-16T03:23:53;3.90;;;0.97;;
19179;SDS011;9722;48.754;8.868;2022-10-16T03:27:14;0.83;;;0.80;;
19179;SDS011;9722;48.754;8.868;2022-10-16T03:30:34;0.93;;;0.87;;
19179;SDS011;9722;48.754;8.868;2022-10-16T03:33:55;1.27;;;0.80;;
19179;SDS011;9722;48.754;8.868;2022-10-16T03:37:16;1.10;;;1.00;;
19179;SDS011;9722;48.754;8.868;2022-10-16T03:40:37;1.17;;;1.00;;
19179;SDS011;9722;48.754;8.868;2022-10-16T03:43:58;0.90;;;0.90;;
19179;SDS011;9722;48.754;8.868;2022-10-16T03:47:18;1.67;;;1.00;;
19179;SDS011;9722;48.754;8.868;2022-10-16T03:50:41;2.27;;;0.87;;
19179;SDS011;9722;48.754;8.868;2022-10-16T03:54:02;4.30;;;1.00;;
19179;SDS011;9722;48.754;8.868;2022-10-16T03:57:22;2.23;;;1.20;;
19179;SDS011;9722;48.754;8.868;2022-10-16T04:00:43;2.03;;;0.83;;
19179;SDS011;9722;48.754;8.868;2022-10-16T04:04:05;1.13;;;0.80;;
19179;SDS011;9722;48.754;8.868;2022-10-16T04:07:25;2.57;;;0.93;;
19179;SDS011;9722;48.754;8.868;2022-10-16T04:10:46;1.77;;;0.80;;
19179;SDS011;9722;48.754;8.868;2022-10-16T04:14:06;1.87;;;0.90;;
19179;SDS011;9722;48.754;8.868;2022-10-16T04:17:27;1.50;;;1.07;;
19179;SDS011;9722;48.754;8.868;2022-10-16T04:20:48;3.00;;;0.90;;
19179;SDS011;9722;48.754;8.868;2022-10-16T04:24:08;1.10;;;1.00;;
19179;SDS011;9722;48.754;8.868;2022-10-16T04:27:30;1.43;;;1.00;;
19179;SDS011;9722;48.754;8.868;2022-10-16T04:30:51;0.97;;;0.87;;
19179;SDS011;9722;48.754;8.868;2022-10-16T04:34:11;3.03;;;0.93;;
19179;SDS011;9722;48.754;8.868;2022-10-16T04:37:32;2.77;;;0.87;;
19179;SDS011;9722;48.754;8.868;2022-10-16T04:40:52;1.57;;;0.70;;
19179;SDS011;9722;48.754;8.868;2022-10-16T04:44:13;1.23;;;0.70;;
19179;SDS011;9722;48.754;8.868;2022-10-16T04:47:34;1.53;;;0.83;;
19179;SDS011;9722;48.754;8.868;2022-10-16T04:50:54;1.30;;;0.80;;
19179;SDS011;9722;48.754;8.868;2022-10-16T04:54:15;0.90;;;0.70;;
19179;SDS011;9722;48.754;8.868;2022-10-16T04:57:35;1.10;;;1.00;;
19179;SDS011;9722;48.754;8.868;2022-10-16T05:00:56;1.30;;;1.10;;
19179;SDS011;9722;48.754;8.868;2022-10-16T05:04:16;2.20;;;0.80;;
19179;SDS011;9722;48.754;8.868;2022-10-16T05:07:37;0.70;;;0.70;;
19179;SDS011;9722;48.754;8.868;2022-10-16T05:10:57;1.43;;;0.93;;
19179;SDS011;9722;48.754;8.868;2022-10-16T05:14:18;0.83;;;0.83;;
19179;SDS011;9722;48.754;8.868;2022-10-16T05:17:38;1.47;;;1.00;;
19179;SDS011;9722;48.754;8.868;2022-10-16T05:20:59;1.93;;;0.87;;
19179;SDS011;9722;48.754;8.868;2022-10-16T05:24:20;0.90;;;0.80;;
19179;SDS011;9722;48.754;8.868;2022-10-16T05:27:40;1.33;;;0.83;;
19179;SDS011;9722;48.754;8.868;2022-10-16T05:31:07;3.10;;;0.90;;
19179;SDS011;9722;48.754;8.868;2022-10-16T05:34:29;1.13;;;1.03;;
19179;SDS011;9722;48.754;8.868;2022-10-16T05:37:49;0.83;;;0.80;;
19179;SDS011;9722;48.754;8.868;2022-10-16T05:41:10;1.20;;;0.80;;
19179;SDS011;9722;48.754;8.868;2022-10-16T05:44:31;0.80;;;0.80;;
19179;SDS011;9722;48.754;8.868;2022-10-16T05:47:51;2.53;;;0.90;;
19179;SDS011;9722;48.754;8.868;2022-10-16T05:51:13;2.70;;;1.00;;
19179;SDS011;9722;48.754;8.868;2022-10-16T05:54:34;0.90;;;0.90;;
19179;SDS011;9722;48.754;8.868;2022-10-16T05:57:54;0.90;;;0.90;;
19179;SDS011;9722;48.754;8.868;2022-10-16T06:01:16;0.90;;;0.90;;
19179;SDS011;9722;48.754;8.868;2022-10-16T06:04:37;1.13;;;1.00;;
19179;SDS011;9722;48.754;8.868;2022-10-16T06:07:58;1.70;;;0.80;;
19179;SDS011;9722;48.754;8.868;2022-10-16T06:11:19;2.40;;;1.10;;
19179;SDS011;9722;48.754;8.868;2022-10-16T06:14:42;1.97;;;1.07;;
19179;SDS011;9722;48.754;8.868;2022-10-16T06:18:02;2.43;;;1.00;;
19179;SDS011;9722;48.754;8.868;2022-10-16T06:21:24;2.90;;;1.17;;
19179;SDS011;9722;48.754;8.868;2022-10-16T06:24:45;1.20;;;0.90;;
19179;SDS011;9722;48.754;8.868;2022-10-16T06:28:06;1.93;;;1.07;;
19179;SDS011;9722;48.754;8.868;2022-10-16T06:31:27;1.00;;;0.90;;
19179;SDS011;9722;48.754;8.868;2022-10-16T06:34:50;3.20;;;1.10;;
19179;SDS011;9722;48.754;8.868;2022-10-16T06:38:11;2.13;;;1.00;;
19179;SDS011;9722;48.754;8.868;2022-10-16T06:41:31;1.77;;;1.13;;
19179;SDS011;9722;48.754;8.868;2022-10-16T06:44:52;4.43;;;1.03;;
19179;SDS011;9722;48.754;8.868;2022-10-16T06:48:13;2.27;;;1.00;;
19179;SDS011;9722;48.754;8.868;2022-10-16T06:51:33;1.03;;;1.00;;
19179;SDS011;9722;48.754;8.868;2022-10-16T06:54:56;1.73;;;0.90;;
19179;SDS011;9722;48.754;8.868;2022-10-16T06:58:17;1.63;;;1.00;;
19179;SDS011;9722;48.754;8.868;2022-10-16T07:01:38;2.10;;;0.97;;
19179;SDS011;9722;48.754;8.868;2022-10-16T07:04:58;1.20;;;0.90;;
19179;SDS011;9722;48.754;8.868;2022-10-16T07:08:19;1.30;;;1.10;;
19179;SDS011;9722;48.754;8.868;2022-10-16T07:11:39;2.57;;;0.90;;
19179;SDS011;9722;48.754;8.868;2022-10-16T07:15:00;1.67;;;0.90;;
19179;SDS011;9722;48.754;8.868;2022-10-16T07:18:21;2.47;;;1.10;;
19179;SDS011;9722;48.754;8.868;2022-10-16T07:21:46;1.30;;;1.20;;
19179;SDS011;9722;48.754;8.868;2022-10-16T07:25:06;2.53;;;1.13;;
19179;SDS011;9722;48.754;8.868;2022-10-16T07:28:27;1.30;;;0.90;;
19179;SDS011;9722;48.754;8.868;2022-10-16T07:31:48;1.60;;;1.03;;
19179;SDS011;9722;48.754;8.868;2022-10-16T07:35:09;2.53;;;1.00;;
19179;SDS011;9722;48.754;8.868;2022-10-16T07:38:30;2.20;;;0.90;;
19179;SDS011;9722;48.754;8.868;2022-10-16T07:41:50;1.00;;;0.90;;
19179;SDS011;9722;48.754;8.868;2022-10-16T07:45:11;1.57;;;1.00;;
19179;SDS011;9722;48.754;8.868;2022-10-16T07:48:32;1.27;;;1.13;;
19179;SDS011;9722;48.754;8.868;2022-10-16T07:51:53;1.40;;;1.00;;
19179;SDS011;9722;48.754;8.868;2022-10-16T07:55:14;3.53;;;0.90;;
19179;SDS011;9722;48.754;8.868;2022-10-16T07:58:35;0.73;;;0.73;;
19179;SDS011;9722;48.754;8.868;2022-10-16T08:01:57;1.97;;;1.00;;
19179;SDS011;9722;48.754;8.868;2022-10-16T08:05:17;1.10;;;0.87;;
19179;SDS011;9722;48.754;8.868;2022-10-16T08:08:38;2.57;;;0.90;;
19179;SDS011;9722;48.754;8.868;2022-10-16T08:11:58;1.10;;;1.00;;
19179;SDS011;9722;48.754;8.868;2022-10-16T08:15:19;1.77;;;1.07;;
19179;SDS011;9722;48.754;8.868;2022-10-16T08:18:40;2.70;;;1.43;;
19179;SDS011;9722;48.754;8.868;2022-10-16T08:22:01;4.17;;;1.10;;
19179;SDS011;9722;48.754;8.868;2022-10-16T08:25:22;1.00;;;0.90;;
19179;SDS011;9722;48.754;8.868;2022-10-16T08:28:43;1.30;;;1.03;;
19179;SDS011;9722;48.754;8.868;2022-10-16T08:32:05;0.97;;;0.90;;
19179;SDS011;9722;48.754;8.868;2022-10-16T08:35:25;1.33;;;0.90;;
19179;SDS011;9722;48.754;8.868;2022-10-16T08:38:49;2.00;;;0.90;;
19179;SDS011;9722;48.754;8.868;2022-10-16T08:45:39;2.37;;;1.10;;
19179;SDS011;9722;48.754;8.868;2022-10-16T08:49:13;2.03;;;1.40;;
19179;SDS011;9722;48.754;8.868;2022-10-16T08:52:35;1.90;;;1.20;;
19179;SDS011;9722;48.754;8.868;2022-10-16T08:56:00;1.83;;;0.97;;
19179;SDS011;9722;48.754;8.868;2022-10-16T08:59:20;1.27;;;0.80;;
19179;SDS011;9722;48.754;8.868;2022-10-16T09:02:45;1.23;;;0.90;;
19179;SDS011;9722;48.754;8.868;2022-10-16T09:06:26;1.10;;;0.70;;
19179;SDS011;9722;48.754;8.868;2022-10-16T09:10:08;0.80;;;0.80;;
19179;SDS011;9722;48.754;8.868;2022-10-16T09:13:48;2.43;;;0.87;;
19179;SDS011;9722;48.754;8.868;2022-10-16T09:21:08;1.23;;;0.93;;
19179;SDS011;9722;48.754;8.868;2022-10-16T09:24:34;2.10;;;0.73;;
19179;SDS011;9722;48.754;8.868;2022-10-16T09:27:56;0.90;;;0.60;;
19179;SDS011;9722;48.754;8.868;2022-10-16T09:31:20;1.17;;;0.60;;
19179;SDS011;9722;48.754;8.868;2022-10-16T09:34:43;0.70;;;0.70;;
19179;SDS011;9722;48.754;8.868;2022-10-16T09:38:08;1.87;;;0.70;;
19179;SDS011;9722;48.754;8.868;2022-10-16T09:41:41;1.37;;;0.60;;
19179;SDS011;9722;48.754;8.868;2022-10-16T09:45:03;5.30;;;0.70;;
19179;SDS011;9722;48.754;8.868;2022-10-16T09:48:26;0.80;;;0.70;;
19179;SDS011;9722;48.754;8.868;2022-10-16T09:52:02;0.60;;;0.50;;
19179;SDS011;9722;48.754;8.868;2022-10-16T09:55:24;0.83;;;0.70;;
19179;SDS011;9722;48.754;8.868;2022-10-16T09:58:49;1.50;;;0.60;;
19179;SDS011;9722;48.754;8.868;2022-10-16T10:02:15;0.80;;;0.80;;
19179;SDS011;9722;48.754;8.868;2022-10-16T10:05:54;1.63;;;0.70;;
19179;SDS011;9722;48.754;8.868;2022-10-16T10:12:49;1.50;;;0.70;;
19179;SDS011;9722;48.754;8.868;2022-10-16T10:16:10;1.73;;;1.00;;
19179;SDS011;9722;48.754;8.868;2022-10-16T10:19:37;3.03;;;0.90;;
19179;SDS011;9722;48.754;8.868;2022-10-16T10:23:22;0.90;;;0.80;;
19179;SDS011;9722;48.754;8.868;2022-10-16T10:26:48;1.63;;;0.80;;
19179;SDS011;9722;48.754;8.868;2022-10-16T10:34:17;0.60;;;0.60;;
19179;SDS011;9722;48.754;8.868;2022-10-16T10:37:50;0.87;;;0.87;;
19179;SDS011;9722;48.754;8.868;2022-10-16T10:45:07;2.40;;;1.20;;
19179;SDS011;9722;48.754;8.868;2022-10-16T10:48:47;1.37;;;0.90;;
19179;SDS011;9722;48.754;8.868;2022-10-16T10:56:07;1.10;;;1.10;;
19179;SDS011;9722;48.754;8.868;2022-10-16T11:07:28;4.27;;;0.73;;
19179;SDS011;9722;48.754;8.868;2022-10-16T11:14:28;0.70;;;0.70;;
19179;SDS011;9722;48.754;8.868;2022-10-16T11:17:59;2.73;;;0.70;;
19179;SDS011;9722;48.754;8.868;2022-10-16T11:21:27;1.80;;;0.90;;
19179;SDS011;9722;48.754;8.868;2022-10-16T11:24:58;0.93;;;0.73;;
19179;SDS011;9722;48.754;8.868;2022-10-16T11:28:39;1.37;;;0.80;;
19179;SDS011;9722;48.754;8.868;2022-10-16T11:32:18;0.67;;;0.60;;
19179;SDS011;9722;48.754;8.868;2022-10-16T11:39:29;2.10;;;0.70;;
19179;SDS011;9722;48.754;8.868;2022-10-16T11:43:34;1.17;;;0.90;;
19179;SDS011;9722;48.754;8.868;2022-10-16T11:46:38;1.17;;;0.77;;
19179;SDS011;9722;48.754;8.868;2022-10-16T11:53:46;0.93;;;0.83;;
19179;SDS011;9722;48.754;8.868;2022-10-16T11:57:20;1.10;;;0.60;;
19179;SDS011;9722;48.754;8.868;2022-10-16T12:00:47;0.60;;;0.60;;
19179;SDS011;9722;48.754;8.868;2022-10-16T12:07:50;1.63;;;0.80;;
19179;SDS011;9722;48.754;8.868;2022-10-16T12:11:33;1.83;;;0.87;;
19179;SDS011;9722;48.754;8.868;2022-10-16T12:14:59;1.63;;;0.90;;
19179;SDS011;9722;48.754;8.868;2022-10-16T12:18:38;3.03;;;1.23;;
19179;SDS011;9722;48.754;8.868;2022-10-16T12:22:01;1.60;;;0.80;;
19179;SDS011;9722;48.754;8.868;2022-10-16T12:25:25;1.27;;;0.80;;
19179;SDS011;9722;48.754;8.868;2022-10-16T12:28:49;0.60;;;0.60;;
19179;SDS011;9722;48.754;8.868;2022-10-16T12:32:28;1.90;;;0.90;;
19179;SDS011;9722;48.754;8.868;2022-10-16T12:35:49;1.33;;;0.80;;
19179;SDS011;9722;48.754;8.868;2022-10-16T12:39:16;0.97;;;0.97;;
19179;SDS011;9722;48.754;8.868;2022-10-16T12:42:42;0.97;;;0.80;;
19179;SDS011;9722;48.754;8.868;2022-10-16T12:52:56;0.60;;;0.60;;
19179;SDS011;9722;48.754;8.868;2022-10-16T12:56:20;0.93;;;0.77;;
19179;SDS011;9722;48.754;8.868;2022-10-16T13:03:43;1.47;;;0.70;;
19179;SDS011;9722;48.754;8.868;2022-10-16T13:11:08;2.77;;;0.90;;
19179;SDS011;9722;48.754;8.868;2022-10-16T13:15:25;1.37;;;1.00;;
19179;SDS011;9722;48.754;8.868;2022-10-16T13:19:07;2.00;;;1.00;;
19179;SDS011;9722;48.754;8.868;2022-10-16T13:22:56;2.47;;;0.93;;
19179;SDS011;9722;48.754;8.868;2022-10-16T13:26:22;1.27;;;1.00;;
19179;SDS011;9722;48.754;8.868;2022-10-16T13:29:45;2.87;;;1.00;;
19179;SDS011;9722;48.754;8.868;2022-10-16T13:33:14;1.73;;;0.93;;
19179;SDS011;9722;48.754;8.868;2022-10-16T13:36:48;3.80;;;1.10;;
19179;SDS011;9722;48.754;8.868;2022-10-16T13:40:21;1.00;;;0.90;;
19179;SDS011;9722;48.754;8.868;2022-10-16T13:43:48;1.20;;;1.10;;
19179;SDS011;9722;48.754;8.868;2022-10-16T13:47:29;1.73;;;1.00;;
19179;SDS011;9722;48.754;8.868;2022-10-16T13:50:58;1.40;;;1.00;;
19179;SDS011;9722;48.754;8.868;2022-10-16T13:54:19;2.00;;;0.87;;
19179;SDS011;9722;48.754;8.868;2022-10-16T13:57:40;1.00;;;1.00;;
19179;SDS011;9722;48.754;8.868;2022-10-16T14:01:05;1.27;;;0.70;;
19179;SDS011;9722;48.754;8.868;2022-10-16T14:04:37;1.67;;;0.80;;
19179;SDS011;9722;48.754;8.868;2022-10-16T14:07:59;1.67;;;1.00;;
19179;SDS011;9722;48.754;8.868;2022-10-16T14:11:21;4.03;;;0.93;;
19179;SDS011;9722;48.754;8.868;2022-10-16T14:14:44;0.87;;;0.87;;
19179;SDS011;9722;48.754;8.868;2022-10-16T14:18:20;1.53;;;0.73;;
19179;SDS011;9722;48.754;8.868;2022-10-16T14:21:42;1.87;;;1.00;;
19179;SDS011;9722;48.754;8.868;2022-10-16T14:25:20;4.33;;;0.90;;
19179;SDS011;9722;48.754;8.868;2022-10-16T14:28:46;1.13;;;1.03;;
19179;SDS011;9722;48.754;8.868;2022-10-16T14:32:20;1.43;;;0.80;;
19179;SDS011;9722;48.754;8.868;2022-10-16T14:35:43;1.93;;;0.70;;
19179;SDS011;9722;48.754;8.868;2022-10-16T14:39:05;2.93;;;0.97;;
19179;SDS011;9722;48.754;8.868;2022-10-16T14:42:37;1.57;;;0.90;;
19179;SDS011;9722;48.754;8.868;2022-10-16T14:45:57;0.80;;;0.80;;
19179;SDS011;9722;48.754;8.868;2022-10-16T14:49:18;2.63;;;0.70;;
19179;SDS011;9722;48.754;8.868;2022-10-16T14:52:40;1.87;;;1.00;;
19179;SDS011;9722;48.754;8.868;2022-10-16T14:56:07;0.97;;;0.97;;
19179;SDS011;9722;48.754;8.868;2022-10-16T15:02:56;1.30;;;1.00;;
19179;SDS011;9722;48.754;8.868;2022-10-16T15:06:17;1.77;;;1.03;;
19179;SDS011;9722;48.754;8.868;2022-10-16T15:09:37;2.10;;;1.07;;
19179;SDS011;9722;48.754;8.868;2022-10-16T15:12:58;1.57;;;0.87;;
19179;SDS011;9722;48.754;8.868;2022-10-16T15:16:18;1.30;;;1.20;;
19179;SDS011;9722;48.754;8.868;2022-10-16T15:19:39;1.53;;;1.10;;
19179;SDS011;9722;48.754;8.868;2022-10-16T15:23:00;3.63;;;1.20;;
19179;SDS011;9722;48.754;8.868;2022-10-16T15:26:27;2.27;;;1.27;;
19179;SDS011;9722;48.754;8.868;2022-10-16T15:29:48;1.67;;;1.47;;
19179;SDS011;9722;48.754;8.868;2022-10-16T15:33:11;7.27;;;2.00;;
19179;SDS011;9722;48.754;8.868;2022-10-16T15:36:34;2.60;;;2.03;;
19179;SDS011;9722;48.754;8.868;2022-10-16T15:39:56;3.60;;;2.17;;
19179;SDS011;9722;48.754;8.868;2022-10-16T15:43:17;2.83;;;2.50;;
19179;SDS011;9722;48.754;8.868;2022-10-16T15:46:38;2.37;;;1.90;;
19179;SDS011;9722;48.754;8.868;2022-10-16T15:49:59;2.30;;;2.10;;
19179;SDS011;9722;48.754;8.868;2022-10-16T15:53:19;3.33;;;3.03;;
19179;SDS011;9722;48.754;8.868;2022-10-16T15:56:40;3.43;;;2.40;;
19179;SDS011;9722;48.754;8.868;2022-10-16T16:00:00;4.33;;;3.10;;
19179;SDS011;9722;48.754;8.868;2022-10-16T16:03:21;3.33;;;2.60;;
19179;SDS011;9722;48.754;8.868;2022-10-16T16:06:41;4.87;;;3.50;;
19179;SDS011;9722;48.754;8.868;2022-10-16T16:10:05;2.57;;;2.37;;
19179;SDS011;9722;48.754;8.868;2022-10-16T16:13:27;2.30;;;2.10;;
19179;SDS011;9722;48.754;8.868;2022-10-16T16:16:47;3.70;;;2.30;;
19179;SDS011;9722;48.754;8.868;2022-10-16T16:20:08;2.43;;;2.23;;
19179;SDS011;9722;48.754;8.868;2022-10-16T16:23:30;5.23;;;3.63;;
19179;SDS011;9722;48.754;8.868;2022-10-16T16:26:50;21.70;;;18.60;;
19179;SDS011;9722;48.754;8.868;2022-10-16T16:30:11;11.27;;;10.30;;
19179;SDS011;9722;48.754;8.868;2022-10-16T16:33:32;4.97;;;3.07;;
19179;SDS011;9722;48.754;8.868;2022-10-16T16:36:53;3.20;;;1.90;;
19179;SDS011;9722;48.754;8.868;2022-10-16T16:40:15;6.57;;;5.97;;
19179;SDS011;9722;48.754;8.868;2022-10-16T16:43:35;6.47;;;5.57;;
19179;SDS011;9722;48.754;8.868;2022-10-16T16:46:56;6.37;;;5.70;;
19179;SDS011;9722;48.754;8.868;2022-10-16T16:50:16;6.57;;;5.97;;
19179;SDS011;9722;48.754;8.868;2022-10-16T16:53:37;4.17;;;3.53;;
19179;SDS011;9722;48.754;8.868;2022-10-16T16:56:57;3.93;;;3.37;;
19179;SDS011;9722;48.754;8.868;2022-10-16T17:00:18;7.07;;;6.37;;
19179;SDS011;9722;48.754;8.868;2022-10-16T17:03:41;2.90;;;2.70;;
19179;SDS011;9722;48.754;8.868;2022-10-16T17:07:04;3.90;;;2.30;;
19179;SDS011;9722;48.754;8.868;2022-10-16T17:10:24;3.87;;;3.43;;
19179;SDS011;9722;48.754;8.868;2022-10-16T17:13:45;8.63;;;6.10;;
19179;SDS011;9722;48.754;8.868;2022-10-16T17:17:06;9.77;;;7.00;;
19179;SDS011;9722;48.754;8.868;2022-10-16T17:20:26;11.83;;;10.77;;
19179;SDS011;9722;48.754;8.868;2022-10-16T17:23:50;12.03;;;10.40;;
19179;SDS011;9722;48.754;8.868;2022-10-16T17:27:11;9.03;;;8.13;;
19179;SDS011;9722;48.754;8.868;2022-10-16T17:30:31;6.23;;;4.73;;
19179;SDS011;9722;48.754;8.868;2022-10-16T17:33:54;7.37;;;4.40;;
19179;SDS011;9722;48.754;8.868;2022-10-16T17:37:16;4.10;;;3.40;;
19179;SDS011;9722;48.754;8.868;2022-10-16T17:40:37;10.43;;;4.00;;
19179;SDS011;9722;48.754;8.868;2022-10-16T17:43:57;4.53;;;4.10;;
19179;SDS011;9722;48.754;8.868;2022-10-16T17:47:18;4.20;;;3.33;;
19179;SDS011;9722;48.754;8.868;2022-10-16T17:50:39;3.63;;;3.33;;
19179;SDS011;9722;48.754;8.868;2022-10-16T17:54:01;5.90;;;3.63;;
19179;SDS011;9722;48.754;8.868;2022-10-16T17:57:21;5.83;;;3.63;;
19179;SDS011;9722;48.754;8.868;2022-10-16T18:00:42;5.63;;;3.63;;
19179;SDS011;9722;48.754;8.868;2022-10-16T18:04:06;5.20;;;2.83;;
19179;SDS011;9722;48.754;8.868;2022-10-16T18:07:29;4.47;;;3.13;;
19179;SDS011;9722;48.754;8.868;2022-10-16T18:10:50;4.40;;;3.10;;
19179;SDS011;9722;48.754;8.868;2022-10-16T18:14:11;5.17;;;3.47;;
19179;SDS011;9722;48.754;8.868;2022-10-16T18:17:36;6.20;;;3.13;;
19179;SDS011;9722;48.754;8.868;2022-10-16T18:20:58;4.93;;;2.60;;
19179;SDS011;9722;48.754;8.868;2022-10-16T18:24:20;5.93;;;3.80;;
19179;SDS011;9722;48.754;8.868;2022-10-16T18:27:44;4.37;;;2.80;;
19179;SDS011;9722;48.754;8.868;2022-10-16T18:31:05;6.37;;;4.03;;
19179;SDS011;9722;48.754;8.868;2022-10-16T18:34:36;5.90;;;3.60;;
19179;SDS011;9722;48.754;8.868;2022-10-16T18:37:56;3.90;;;3.60;;
19179;SDS011;9722;48.754;8.868;2022-10-16T18:41:19;4.30;;;3.83;;
19179;SDS011;9722;48.754;8.868;2022-10-16T18:44:40;7.30;;;3.80;;
19179;SDS011;9722;48.754;8.868;2022-10-16T18:48:00;3.77;;;3.47;;
19179;SDS011;9722;48.754;8.868;2022-10-16T18:51:25;4.07;;;3.33;;
19179;SDS011;9722;48.754;8.868;2022-10-16T18:54:48;5.47;;;3.00;;
19179;SDS011;9722;48.754;8.868;2022-10-16T18:58:09;5.23;;;3.83;;
19179;SDS011;9722;48.754;8.868;2022-10-16T19:01:31;6.37;;;3.60;;
19179;SDS011;9722;48.754;8.868;2022-10-16T19:04:53;4.63;;;3.87;;
19179;SDS011;9722;48.754;8.868;2022-10-16T19:08:13;4.60;;;4.07;;
19179;SDS011;9722;48.754;8.868;2022-10-16T19:11:35;7.53;;;4.53;;
19179;SDS011;9722;48.754;8.868;2022-10-16T19:14:56;9.83;;;4.70;;
19179;SDS011;9722;48.754;8.868;2022-10-16T19:18:16;5.67;;;3.43;;
19179;SDS011;9722;48.754;8.868;2022-10-16T19:21:37;7.53;;;3.60;;
19179;SDS011;9722;48.754;8.868;2022-10-16T19:25:01;4.70;;;3.47;;
19179;SDS011;9722;48.754;8.868;2022-10-16T19:28:21;8.27;;;3.60;;
19179;SDS011;9722;48.754;8.868;2022-10-16T19:31:42;6.20;;;3.50;;
19179;SDS011;9722;48.754;8.868;2022-10-16T19:35:02;5.33;;;3.20;;
19179;SDS011;9722;48.754;8.868;2022-10-16T19:38:23;5.87;;;3.60;;
19179;SDS011;9722;48.754;8.868;2022-10-16T19:41:44;4.00;;;3.33;;
19179;SDS011;9722;48.754;8.868;2022-10-16T19:45:06;5.03;;;3.23;;
19179;SDS011;9722;48.754;8.868;2022-10-16T19:48:27;4.67;;;3.47;;
19179;SDS011;9722;48.754;8.868;2022-10-16T19:51:48;3.57;;;2.57;;
19179;SDS011;9722;48.754;8.868;2022-10-16T19:55:10;4.07;;;2.90;;
19179;SDS011;9722;48.754;8.868;2022-10-16T19:58:31;4.30;;;3.30;;
19179;SDS011;9722;48.754;8.868;2022-10-16T20:01:51;3.97;;;2.90;;
19179;SDS011;9722;48.754;8.868;2022-10-16T20:05:12;5.23;;;2.87;;
19179;SDS011;9722;48.754;8.868;2022-10-16T20:08:33;6.53;;;3.07;;
19179;SDS011;9722;48.754;8.868;2022-10-16T20:11:55;5.37;;;3.30;;
19179;SDS011;9722;48.754;8.868;2022-10-16T20:15:16;5.23;;;2.93;;
19179;SDS011;9722;48.754;8.868;2022-10-16T20:18:36;4.57;;;3.10;;
19179;SDS011;9722;48.754;8.868;2022-10-16T20:21:57;4.67;;;3.10;;
19179;SDS011;9722;48.754;8.868;2022-10-16T20:25:18;3.57;;;3.27;;
19179;SDS011;9722;48.754;8.868;2022-10-16T20:28:39;9.07;;;3.10;;
19179;SDS011;9722;48.754;8.868;2022-10-16T20:32:00;3.77;;;3.07;;
19179;SDS011;9722;48.754;8.868;2022-10-16T20:35:21;3.40;;;2.87;;
19179;SDS011;9722;48.754;8.868;2022-10-16T20:38:41;4.63;;;3.00;;
19179;SDS011;9722;48.754;8.868;2022-10-16T20:42:02;7.20;;;2.90;;
19179;SDS011;9722;48.754;8.868;2022-10-16T20:45:23;6.03;;;2.80;;
19179;SDS011;9722;48.754;8.868;2022-10-16T20:48:44;5.63;;;3.43;;
19179;SDS011;9722;48.754;8.868;2022-10-16T20:52:05;4.57;;;2.80;;
19179;SDS011;9722;48.754;8.868;2022-10-16T20:55:26;7.90;;;2.40;;
19179;SDS011;9722;48.754;8.868;2022-10-16T20:58:46;6.33;;;2.87;;
19179;SDS011;9722;48.754;8.868;2022-10-16T21:02:08;5.20;;;2.90;;
19179;SDS011;9722;48.754;8.868;2022-10-16T21:05:29;6.87;;;2.50;;
19179;SDS011;9722;48.754;8.868;2022-10-16T21:08:52;3.77;;;2.70;;
19179;SDS011;9722;48.754;8.868;2022-10-16T21:12:12;3.37;;;2.70;;
19179;SDS011;9722;48.754;8.868;2022-10-16T21:15:33;6.27;;;2.60;;
19179;SDS011;9722;48.754;8.868;2022-10-16T21:18:56;3.73;;;2.63;;
19179;SDS011;9722;48.754;8.868;2022-10-16T21:22:17;6.20;;;2.27;;
19179;SDS011;9722;48.754;8.868;2022-10-16T21:25:37;4.03;;;2.70;;
19179;SDS011;9722;48.754;8.868;2022-10-16T21:29:00;4.10;;;2.37;;
19179;SDS011;9722;48.754;8.868;2022-10-16T21:32:22;3.77;;;2.77;;
19179;SDS011;9722;48.754;8.868;2022-10-16T21:35:42;3.17;;;2.27;;
19179;SDS011;9722;48.754;8.868;2022-10-16T21:39:04;2.73;;;2.30;;
19179;SDS011;9722;48.754;8.868;2022-10-16T21:42:26;3.10;;;2.70;;
19179;SDS011;9722;48.754;8.868;2022-10-16T21:45:47;2.70;;;2.50;;
19179;SDS011;9722;48.754;8.868;2022-10-16T21:49:11;3.23;;;2.27;;
19179;SDS011;9722;48.754;8.868;2022-10-16T21:52:36;2.77;;;2.57;;
19179;SDS011;9722;48.754;8.868;2022-10-16T21:55:56;4.63;;;3.00;;
19179;SDS011;9722;48.754;8.868;2022-10-16T21:59:17;4.70;;;2.40;;
19179;SDS011;9722;48.754;8.868;2022-10-16T22:02:38;3.07;;;2.53;;